sensor_id;sensor_type;location;lat;lon;timestamp;temperature;humidity
18823;DHT22;9540;51.550;7.980;2023-11-19T00:00:19;10.40;99.90
18823;DHT22;9540;51.550;7.980;2023-11-19T00:02:48;10.40;99.90
18823;DHT22;9540;51.550;7.980;2023-11-19T00:05:15;10.50;99.90
18823;DHT22;9540;51.550;7.980;2023-11-19T00:07:42;10.50;99.90
18823;DHT22;9540;51.550;7.980;2023-11-19T00:10:10;10.50;99.90
18823;DHT22;9540;51.550;7.980;2023-11-19T00:12:38;10.40;99.90
18823;DHT22;9540;51.550;7.980;2023-11-19T00:15:06;10.40;99.90
18823;DHT22;9540;51.550;7.980;2023-11-19T00:17:37;10.40;99.90
18823;DHT22;9540;51.550;7.980;2023-11-19T00:20:08;10.30;99.90
18823;DHT22;9540;51.550;7.980;2023-11-19T00:22:35;10.30;99.90
18823;DHT22;9540;51.550;7.980;2023-11-19T00:25:03;10.40;99.90
18823;DHT22;9540;51.550;7.980;2023-11-19T00:27:31;10.40;99.90
18823;DHT22;9540;51.550;7.980;2023-11-19T00:29:58;10.40;99.90
18823;DHT22;9540;51.550;7.980;2023-11-19T00:32:25;10.50;99.90
18823;DHT22;9540;51.550;7.980;2023-11-19T00:34:53;10.50;99.90
18823;DHT22;9540;51.550;7.980;2023-11-19T00:37:22;10.60;99.90
18823;DHT22;9540;51.550;7.980;2023-11-19T00:39:49;10.60;99.90
18823;DHT22;9540;51.550;7.980;2023-11-19T00:42:17;10.60;99.90
18823;DHT22;9540;51.550;7.980;2023-11-19T00:44:45;10.50;99.90
18823;DHT22;9540;51.550;7.980;2023-11-19T00:47:12;10.60;99.90
18823;DHT22;9540;51.550;7.980;2023-11-19T00:49:39;10.70;99.90
18823;DHT22;9540;51.550;7.980;2023-11-19T00:52:07;10.70;99.90
18823;DHT22;9540;51.550;7.980;2023-11-19T00:54:35;10.80;99.90
18823;DHT22;9540;51.550;7.980;2023-11-19T00:57:03;10.80;99.90
18823;DHT22;9540;51.550;7.980;2023-11-19T00:59:31;10.90;99.90
18823;DHT22;9540;51.550;7.980;2023-11-19T01:01:58;11.00;99.90
18823;DHT22;9540;51.550;7.980;2023-11-19T01:04:28;11.00;99.90
18823;DHT22;9540;51.550;7.980;2023-11-19T01:06:55;11.10;99.90
18823;DHT22;9540;51.550;7.980;2023-11-19T01:09:23;11.10;99.90
18823;DHT22;9540;51.550;7.980;2023-11-19T01:11:51;11.20;99.90
18823;DHT22;9540;51.550;7.980;2023-11-19T01:14:18;11.20;99.90
18823;DHT22;9540;51.550;7.980;2023-11-19T01:16:46;11.30;99.90
18823;DHT22;9540;51.550;7.980;2023-11-19T01:19:13;11.30;99.90
18823;DHT22;9540;51.550;7.980;2023-11-19T01:21:40;11.40;99.90
18823;DHT22;9540;51.550;7.980;2023-11-19T01:24:09;11.40;99.90
18823;DHT22;9540;51.550;7.980;2023-11-19T01:26:39;11.50;99.90
18823;DHT22;9540;51.550;7.980;2023-11-19T01:29:12;11.50;99.90
18823;DHT22;9540;51.550;7.980;2023-11-19T01:31:41;11.50;99.90
18823;DHT22;9540;51.550;7.980;2023-11-19T01:34:08;11.60;99.90
18823;DHT22;9540;51.550;7.980;2023-11-19T01:36:41;11.70;99.90
18823;DHT22;9540;51.550;7.980;2023-11-19T01:39:08;11.70;99.90
18823;DHT22;9540;51.550;7.980;2023-11-19T01:41:38;11.80;99.90
18823;DHT22;9540;51.550;7.980;2023-11-19T01:44:08;11.80;99.90
18823;DHT22;9540;51.550;7.980;2023-11-19T01:46:42;11.90;99.90
18823;DHT22;9540;51.550;7.980;2023-11-19T01:49:09;12.00;99.90
18823;DHT22;9540;51.550;7.980;2023-11-19T01:51:38;11.90;99.90
18823;DHT22;9540;51.550;7.980;2023-11-19T01:54:06;12.00;99.90
18823;DHT22;9540;51.550;7.980;2023-11-19T01:56:34;12.00;99.90
18823;DHT22;9540;51.550;7.980;2023-11-19T01:59:02;11.90;99.90
18823;DHT22;9540;51.550;7.980;2023-11-19T02:01:30;11.80;99.90
18823;DHT22;9540;51.550;7.980;2023-11-19T02:03:59;11.80;99.90
18823;DHT22;9540;51.550;7.980;2023-11-19T02:06:28;11.70;99.90
18823;DHT22;9540;51.550;7.980;2023-11-19T02:08:55;11.70;99.90
18823;DHT22;9540;51.550;7.980;2023-11-19T02:11:22;11.60;99.90
18823;DHT22;9540;51.550;7.980;2023-11-19T02:13:54;11.60;99.90
18823;DHT22;9540;51.550;7.980;2023-11-19T02:16:22;11.60;99.90
18823;DHT22;9540;51.550;7.980;2023-11-19T02:18:50;11.60;99.90
18823;DHT22;9540;51.550;7.980;2023-11-19T02:21:18;11.60;99.90
18823;DHT22;9540;51.550;7.980;2023-11-19T02:23:45;11.60;99.90
18823;DHT22;9540;51.550;7.980;2023-11-19T02:26:18;11.60;99.90
18823;DHT22;9540;51.550;7.980;2023-11-19T02:28:47;11.60;99.90
18823;DHT22;9540;51.550;7.980;2023-11-19T02:31:14;11.60;99.90
18823;DHT22;9540;51.550;7.980;2023-11-19T02:33:41;11.50;99.90
18823;DHT22;9540;51.550;7.980;2023-11-19T02:36:09;11.60;99.90
18823;DHT22;9540;51.550;7.980;2023-11-19T02:38:37;11.60;99.90
18823;DHT22;9540;51.550;7.980;2023-11-19T02:41:05;11.50;99.90
18823;DHT22;9540;51.550;7.980;2023-11-19T02:43:33;11.60;99.90
18823;DHT22;9540;51.550;7.980;2023-11-19T02:46:02;11.50;99.90
18823;DHT22;9540;51.550;7.980;2023-11-19T02:48:32;11.50;99.90
18823;DHT22;9540;51.550;7.980;2023-11-19T02:51:01;11.50;99.90
18823;DHT22;9540;51.550;7.980;2023-11-19T02:53:29;11.50;99.90
18823;DHT22;9540;51.550;7.980;2023-11-19T02:55:56;11.50;99.90
18823;DHT22;9540;51.550;7.980;2023-11-19T02:58:27;11.50;99.90
18823;DHT22;9540;51.550;7.980;2023-11-19T03:00:55;11.50;99.90
18823;DHT22;9540;51.550;7.980;2023-11-19T03:03:27;11.60;99.90
18823;DHT22;9540;51.550;7.980;2023-11-19T03:06:04;11.60;99.90
18823;DHT22;9540;51.550;7.980;2023-11-19T03:08:31;11.60;99.90
18823;DHT22;9540;51.550;7.980;2023-11-19T03:10:59;11.60;99.90
18823;DHT22;9540;51.550;7.980;2023-11-19T03:13:27;11.60;99.90
18823;DHT22;9540;51.550;7.980;2023-11-19T03:15:54;11.60;99.90
18823;DHT22;9540;51.550;7.980;2023-11-19T03:18:21;11.60;99.90
18823;DHT22;9540;51.550;7.980;2023-11-19T03:20:50;11.60;99.90
18823;DHT22;9540;51.550;7.980;2023-11-19T03:23:18;11.60;99.90
18823;DHT22;9540;51.550;7.980;2023-11-19T03:25:45;11.60;99.90
18823;DHT22;9540;51.550;7.980;2023-11-19T03:28:12;11.60;99.90
18823;DHT22;9540;51.550;7.980;2023-11-19T03:30:39;11.60;99.90
18823;DHT22;9540;51.550;7.980;2023-11-19T03:33:06;11.60;99.90
18823;DHT22;9540;51.550;7.980;2023-11-19T03:35:34;11.60;99.90
18823;DHT22;9540;51.550;7.980;2023-11-19T03:38:02;11.70;99.90
18823;DHT22;9540;51.550;7.980;2023-11-19T03:40:28;11.70;99.90
18823;DHT22;9540;51.550;7.980;2023-11-19T03:42:56;11.80;99.90
18823;DHT22;9540;51.550;7.980;2023-11-19T03:45:24;11.70;99.90
18823;DHT22;9540;51.550;7.980;2023-11-19T03:47:51;11.80;99.90
18823;DHT22;9540;51.550;7.980;2023-11-19T03:50:18;11.70;99.90
18823;DHT22;9540;51.550;7.980;2023-11-19T03:52:46;11.80;99.90
18823;DHT22;9540;51.550;7.980;2023-11-19T03:55:15;11.80;99.90
18823;DHT22;9540;51.550;7.980;2023-11-19T03:57:42;11.80;99.90
18823;DHT22;9540;51.550;7.980;2023-11-19T04:00:10;11.90;99.90
18823;DHT22;9540;51.550;7.980;2023-11-19T04:02:39;12.00;99.90
18823;DHT22;9540;51.550;7.980;2023-11-19T04:05:07;12.10;99.90
18823;DHT22;9540;51.550;7.980;2023-11-19T04:07:35;12.00;99.90
18823;DHT22;9540;51.550;7.980;2023-11-19T04:10:03;12.10;99.90
18823;DHT22;9540;51.550;7.980;2023-11-19T04:12:31;12.10;99.90
18823;DHT22;9540;51.550;7.980;2023-11-19T04:14:59;12.20;99.90
18823;DHT22;9540;51.550;7.980;2023-11-19T04:17:26;12.20;99.90
18823;DHT22;9540;51.550;7.980;2023-11-19T04:19:54;12.10;99.90
18823;DHT22;9540;51.550;7.980;2023-11-19T04:22:21;12.10;99.90
18823;DHT22;9540;51.550;7.980;2023-11-19T04:24:48;12.10;99.90
18823;DHT22;9540;51.550;7.980;2023-11-19T04:27:15;12.10;99.90
18823;DHT22;9540;51.550;7.980;2023-11-19T04:29:44;12.00;99.90
18823;DHT22;9540;51.550;7.980;2023-11-19T04:32:12;12.00;99.90
18823;DHT22;9540;51.550;7.980;2023-11-19T04:34:39;11.90;99.90
18823;DHT22;9540;51.550;7.980;2023-11-19T04:37:07;11.80;99.90
18823;DHT22;9540;51.550;7.980;2023-11-19T04:39:35;11.80;99.90
18823;DHT22;9540;51.550;7.980;2023-11-19T04:42:03;11.80;99.90
18823;DHT22;9540;51.550;7.980;2023-11-19T04:44:32;11.70;99.90
18823;DHT22;9540;51.550;7.980;2023-11-19T04:47:00;11.70;99.90
18823;DHT22;9540;51.550;7.980;2023-11-19T04:49:27;11.60;99.90
18823;DHT22;9540;51.550;7.980;2023-11-19T04:51:56;11.60;99.90
18823;DHT22;9540;51.550;7.980;2023-11-19T04:54:23;11.50;99.90
18823;DHT22;9540;51.550;7.980;2023-11-19T04:56:50;11.50;99.90
18823;DHT22;9540;51.550;7.980;2023-11-19T04:59:17;11.60;99.90
18823;DHT22;9540;51.550;7.980;2023-11-19T05:01:47;11.60;99.90
18823;DHT22;9540;51.550;7.980;2023-11-19T05:04:16;11.60;99.90
18823;DHT22;9540;51.550;7.980;2023-11-19T05:06:44;11.60;99.90
18823;DHT22;9540;51.550;7.980;2023-11-19T05:09:11;11.60;99.90
18823;DHT22;9540;51.550;7.980;2023-11-19T05:11:39;11.60;99.90
18823;DHT22;9540;51.550;7.980;2023-11-19T05:14:07;11.70;99.90
18823;DHT22;9540;51.550;7.980;2023-11-19T05:16:34;11.70;99.90
18823;DHT22;9540;51.550;7.980;2023-11-19T05:19:02;11.70;99.90
18823;DHT22;9540;51.550;7.980;2023-11-19T05:21:31;11.70;99.90
18823;DHT22;9540;51.550;7.980;2023-11-19T05:23:58;11.70;99.90
18823;DHT22;9540;51.550;7.980;2023-11-19T05:26:26;11.70;99.90
18823;DHT22;9540;51.550;7.980;2023-11-19T05:28:54;11.70;99.90
18823;DHT22;9540;51.550;7.980;2023-11-19T05:31:21;11.60;99.90
18823;DHT22;9540;51.550;7.980;2023-11-19T05:33:48;11.70;99.90
18823;DHT22;9540;51.550;7.980;2023-11-19T05:36:16;11.70;99.90
18823;DHT22;9540;51.550;7.980;2023-11-19T05:38:44;11.60;99.90
18823;DHT22;9540;51.550;7.980;2023-11-19T05:41:11;11.60;99.90
18823;DHT22;9540;51.550;7.980;2023-11-19T05:43:39;11.60;99.90
18823;DHT22;9540;51.550;7.980;2023-11-19T05:46:07;11.60;99.90
18823;DHT22;9540;51.550;7.980;2023-11-19T05:48:34;11.60;99.90
18823;DHT22;9540;51.550;7.980;2023-11-19T05:51:01;11.70;99.90
18823;DHT22;9540;51.550;7.980;2023-11-19T05:53:28;11.70;99.90
18823;DHT22;9540;51.550;7.980;2023-11-19T05:55:57;11.80;99.90
18823;DHT22;9540;51.550;7.980;2023-11-19T05:58:29;12.00;99.90
18823;DHT22;9540;51.550;7.980;2023-11-19T06:00:58;12.10;99.90
18823;DHT22;9540;51.550;7.980;2023-11-19T06:03:26;12.10;99.90
18823;DHT22;9540;51.550;7.980;2023-11-19T06:05:53;12.10;99.90
18823;DHT22;9540;51.550;7.980;2023-11-19T06:08:21;12.10;99.90
18823;DHT22;9540;51.550;7.980;2023-11-19T06:10:48;12.00;99.90
18823;DHT22;9540;51.550;7.980;2023-11-19T06:13:18;12.00;99.90
18823;DHT22;9540;51.550;7.980;2023-11-19T06:15:45;12.00;99.90
18823;DHT22;9540;51.550;7.980;2023-11-19T06:18:12;12.00;99.90
18823;DHT22;9540;51.550;7.980;2023-11-19T06:20:40;12.00;99.90
18823;DHT22;9540;51.550;7.980;2023-11-19T06:23:08;12.00;99.90
18823;DHT22;9540;51.550;7.980;2023-11-19T06:25:35;12.00;99.90
18823;DHT22;9540;51.550;7.980;2023-11-19T06:28:02;12.10;99.90
18823;DHT22;9540;51.550;7.980;2023-11-19T06:30:30;12.10;99.90
18823;DHT22;9540;51.550;7.980;2023-11-19T06:32:58;12.10;99.90
18823;DHT22;9540;51.550;7.980;2023-11-19T06:35:25;12.20;99.90
18823;DHT22;9540;51.550;7.980;2023-11-19T06:37:53;12.20;99.90
18823;DHT22;9540;51.550;7.980;2023-11-19T06:40:20;12.30;99.90
18823;DHT22;9540;51.550;7.980;2023-11-19T06:42:47;12.40;99.90
18823;DHT22;9540;51.550;7.980;2023-11-19T06:45:17;12.40;99.90
18823;DHT22;9540;51.550;7.980;2023-11-19T06:47:46;12.50;99.90
18823;DHT22;9540;51.550;7.980;2023-11-19T06:50:13;12.50;99.90
18823;DHT22;9540;51.550;7.980;2023-11-19T06:52:40;12.60;99.90
18823;DHT22;9540;51.550;7.980;2023-11-19T06:55:08;12.60;99.90
18823;DHT22;9540;51.550;7.980;2023-11-19T06:57:36;12.50;99.90
18823;DHT22;9540;51.550;7.980;2023-11-19T07:00:05;12.40;99.90
18823;DHT22;9540;51.550;7.980;2023-11-19T07:02:32;12.30;99.90
18823;DHT22;9540;51.550;7.980;2023-11-19T07:05:01;12.30;99.90
18823;DHT22;9540;51.550;7.980;2023-11-19T07:07:30;12.30;99.90
18823;DHT22;9540;51.550;7.980;2023-11-19T07:09:57;12.20;99.90
18823;DHT22;9540;51.550;7.980;2023-11-19T07:12:25;12.10;99.90
18823;DHT22;9540;51.550;7.980;2023-11-19T07:14:53;12.10;99.90
18823;DHT22;9540;51.550;7.980;2023-11-19T07:17:21;12.00;99.90
18823;DHT22;9540;51.550;7.980;2023-11-19T07:19:50;12.00;99.90
18823;DHT22;9540;51.550;7.980;2023-11-19T07:22:21;12.00;99.90
18823;DHT22;9540;51.550;7.980;2023-11-19T07:24:48;12.00;99.90
18823;DHT22;9540;51.550;7.980;2023-11-19T07:27:17;12.00;99.90
18823;DHT22;9540;51.550;7.980;2023-11-19T07:29:44;12.00;99.90
18823;DHT22;9540;51.550;7.980;2023-11-19T07:32:15;12.10;99.90
18823;DHT22;9540;51.550;7.980;2023-11-19T07:34:43;12.10;99.90
18823;DHT22;9540;51.550;7.980;2023-11-19T07:37:10;12.20;99.90
18823;DHT22;9540;51.550;7.980;2023-11-19T07:39:39;12.10;99.90
18823;DHT22;9540;51.550;7.980;2023-11-19T07:42:07;12.20;99.90
18823;DHT22;9540;51.550;7.980;2023-11-19T07:44:35;12.20;99.90
18823;DHT22;9540;51.550;7.980;2023-11-19T07:47:02;12.20;99.90
18823;DHT22;9540;51.550;7.980;2023-11-19T07:49:29;12.20;99.90
18823;DHT22;9540;51.550;7.980;2023-11-19T07:51:57;12.20;99.90
18823;DHT22;9540;51.550;7.980;2023-11-19T07:54:24;12.20;99.90
18823;DHT22;9540;51.550;7.980;2023-11-19T07:56:53;12.20;99.90
18823;DHT22;9540;51.550;7.980;2023-11-19T07:59:21;12.10;99.90
18823;DHT22;9540;51.550;7.980;2023-11-19T08:01:48;12.20;99.90
18823;DHT22;9540;51.550;7.980;2023-11-19T08:04:15;12.20;99.90
18823;DHT22;9540;51.550;7.980;2023-11-19T08:06:42;12.10;99.90
18823;DHT22;9540;51.550;7.980;2023-11-19T08:09:09;12.10;99.90
18823;DHT22;9540;51.550;7.980;2023-11-19T08:11:39;12.10;99.90
18823;DHT22;9540;51.550;7.980;2023-11-19T08:14:08;12.10;99.90
18823;DHT22;9540;51.550;7.980;2023-11-19T08:16:35;12.10;99.90
18823;DHT22;9540;51.550;7.980;2023-11-19T08:19:03;12.20;99.90
18823;DHT22;9540;51.550;7.980;2023-11-19T08:21:30;12.20;99.90
18823;DHT22;9540;51.550;7.980;2023-11-19T08:23:57;12.20;99.90
18823;DHT22;9540;51.550;7.980;2023-11-19T08:26:24;12.20;99.90
18823;DHT22;9540;51.550;7.980;2023-11-19T08:28:52;12.10;99.90
18823;DHT22;9540;51.550;7.980;2023-11-19T08:31:20;12.20;99.90
18823;DHT22;9540;51.550;7.980;2023-11-19T08:33:47;12.20;99.90
18823;DHT22;9540;51.550;7.980;2023-11-19T08:36:17;12.20;99.90
18823;DHT22;9540;51.550;7.980;2023-11-19T08:38:44;12.30;99.90
18823;DHT22;9540;51.550;7.980;2023-11-19T08:41:12;12.30;99.90
18823;DHT22;9540;51.550;7.980;2023-11-19T08:43:39;12.40;99.90
18823;DHT22;9540;51.550;7.980;2023-11-19T08:46:09;12.50;99.90
18823;DHT22;9540;51.550;7.980;2023-11-19T08:48:39;12.70;99.90
18823;DHT22;9540;51.550;7.980;2023-11-19T08:51:06;12.70;99.90
18823;DHT22;9540;51.550;7.980;2023-11-19T08:53:33;12.60;99.90
18823;DHT22;9540;51.550;7.980;2023-11-19T08:56:01;12.60;99.90
18823;DHT22;9540;51.550;7.980;2023-11-19T08:58:28;12.50;99.90
18823;DHT22;9540;51.550;7.980;2023-11-19T09:00:56;12.60;99.90
18823;DHT22;9540;51.550;7.980;2023-11-19T09:03:23;12.60;99.90
18823;DHT22;9540;51.550;7.980;2023-11-19T09:05:53;12.60;99.90
18823;DHT22;9540;51.550;7.980;2023-11-19T09:08:20;12.60;99.90
18823;DHT22;9540;51.550;7.980;2023-11-19T09:10:47;12.50;99.90
18823;DHT22;9540;51.550;7.980;2023-11-19T09:13:14;12.60;99.90
18823;DHT22;9540;51.550;7.980;2023-11-19T09:15:42;12.50;99.90
18823;DHT22;9540;51.550;7.980;2023-11-19T09:18:09;12.40;99.90
18823;DHT22;9540;51.550;7.980;2023-11-19T09:20:36;12.50;99.90
18823;DHT22;9540;51.550;7.980;2023-11-19T09:23:05;12.60;99.90
18823;DHT22;9540;51.550;7.980;2023-11-19T09:25:34;12.70;99.90
18823;DHT22;9540;51.550;7.980;2023-11-19T09:28:01;12.70;99.90
18823;DHT22;9540;51.550;7.980;2023-11-19T09:30:28;12.70;99.90
18823;DHT22;9540;51.550;7.980;2023-11-19T09:32:56;12.70;99.90
18823;DHT22;9540;51.550;7.980;2023-11-19T09:35:23;12.80;99.90
18823;DHT22;9540;51.550;7.980;2023-11-19T09:37:50;12.80;99.90
18823;DHT22;9540;51.550;7.980;2023-11-19T09:40:19;12.80;99.90
18823;DHT22;9540;51.550;7.980;2023-11-19T09:42:46;12.80;99.90
18823;DHT22;9540;51.550;7.980;2023-11-19T09:45:16;12.80;99.90
18823;DHT22;9540;51.550;7.980;2023-11-19T09:47:45;12.70;99.90
18823;DHT22;9540;51.550;7.980;2023-11-19T09:50:16;12.80;99.90
18823;DHT22;9540;51.550;7.980;2023-11-19T09:52:44;12.80;99.90
18823;DHT22;9540;51.550;7.980;2023-11-19T09:55:11;12.90;99.90
18823;DHT22;9540;51.550;7.980;2023-11-19T09:57:41;13.00;99.90
18823;DHT22;9540;51.550;7.980;2023-11-19T10:00:10;13.00;99.90
18823;DHT22;9540;51.550;7.980;2023-11-19T10:02:39;12.90;99.90
18823;DHT22;9540;51.550;7.980;2023-11-19T10:05:07;12.80;99.90
18823;DHT22;9540;51.550;7.980;2023-11-19T10:07:35;12.80;99.90
18823;DHT22;9540;51.550;7.980;2023-11-19T10:10:04;12.90;99.90
18823;DHT22;9540;51.550;7.980;2023-11-19T10:12:31;12.90;99.90
18823;DHT22;9540;51.550;7.980;2023-11-19T10:14:59;12.90;99.90
18823;DHT22;9540;51.550;7.980;2023-11-19T10:17:33;12.90;99.90
18823;DHT22;9540;51.550;7.980;2023-11-19T10:20:00;12.80;99.90
18823;DHT22;9540;51.550;7.980;2023-11-19T10:22:28;12.80;99.90
18823;DHT22;9540;51.550;7.980;2023-11-19T10:24:55;12.90;99.90
18823;DHT22;9540;51.550;7.980;2023-11-19T10:27:24;12.90;99.90
18823;DHT22;9540;51.550;7.980;2023-11-19T10:29:52;12.80;99.90
18823;DHT22;9540;51.550;7.980;2023-11-19T10:32:20;12.90;99.90
18823;DHT22;9540;51.550;7.980;2023-11-19T10:34:47;12.90;99.90
18823;DHT22;9540;51.550;7.980;2023-11-19T10:37:27;12.80;99.90
18823;DHT22;9540;51.550;7.980;2023-11-19T10:39:56;12.80;99.90
18823;DHT22;9540;51.550;7.980;2023-11-19T10:42:23;12.80;99.90
18823;DHT22;9540;51.550;7.980;2023-11-19T10:44:50;12.80;99.90
18823;DHT22;9540;51.550;7.980;2023-11-19T10:47:20;12.80;99.90
18823;DHT22;9540;51.550;7.980;2023-11-19T10:49:49;12.80;99.90
18823;DHT22;9540;51.550;7.980;2023-11-19T10:52:18;12.80;99.90
18823;DHT22;9540;51.550;7.980;2023-11-19T10:54:50;12.80;99.90
18823;DHT22;9540;51.550;7.980;2023-11-19T10:57:20;12.90;99.90
18823;DHT22;9540;51.550;7.980;2023-11-19T10:59:49;12.90;99.90
18823;DHT22;9540;51.550;7.980;2023-11-19T11:02:24;13.10;99.90
18823;DHT22;9540;51.550;7.980;2023-11-19T11:04:53;13.20;99.90
18823;DHT22;9540;51.550;7.980;2023-11-19T11:07:21;13.20;99.90
18823;DHT22;9540;51.550;7.980;2023-11-19T11:09:51;13.20;99.90
18823;DHT22;9540;51.550;7.980;2023-11-19T11:12:22;13.10;99.90
18823;DHT22;9540;51.550;7.980;2023-11-19T11:14:49;13.10;99.90
18823;DHT22;9540;51.550;7.980;2023-11-19T11:17:20;13.10;99.90
18823;DHT22;9540;51.550;7.980;2023-11-19T11:19:50;13.10;99.90
18823;DHT22;9540;51.550;7.980;2023-11-19T11:22:18;13.20;99.90
18823;DHT22;9540;51.550;7.980;2023-11-19T11:25:17;13.20;99.90
18823;DHT22;9540;51.550;7.980;2023-11-19T11:28:20;13.30;99.90
18823;DHT22;9540;51.550;7.980;2023-11-19T11:31:03;13.60;99.90
18823;DHT22;9540;51.550;7.980;2023-11-19T11:33:45;13.40;99.90
18823;DHT22;9540;51.550;7.980;2023-11-19T11:36:22;13.30;99.90
18823;DHT22;9540;51.550;7.980;2023-11-19T11:38:50;13.20;99.90
18823;DHT22;9540;51.550;7.980;2023-11-19T11:41:21;13.10;99.90
18823;DHT22;9540;51.550;7.980;2023-11-19T11:43:49;13.10;99.90
18823;DHT22;9540;51.550;7.980;2023-11-19T11:46:53;13.10;99.90
18823;DHT22;9540;51.550;7.980;2023-11-19T11:49:28;13.40;99.90
18823;DHT22;9540;51.550;7.980;2023-11-19T11:52:02;13.70;99.90
18823;DHT22;9540;51.550;7.980;2023-11-19T11:54:32;13.70;99.90
18823;DHT22;9540;51.550;7.980;2023-11-19T11:57:07;13.70;99.90
18823;DHT22;9540;51.550;7.980;2023-11-19T11:59:52;13.60;99.90
18823;DHT22;9540;51.550;7.980;2023-11-19T12:02:21;13.50;99.90
18823;DHT22;9540;51.550;7.980;2023-11-19T12:04:51;13.40;99.90
18823;DHT22;9540;51.550;7.980;2023-11-19T12:07:19;13.30;99.90
18823;DHT22;9540;51.550;7.980;2023-11-19T12:09:48;13.30;99.90
18823;DHT22;9540;51.550;7.980;2023-11-19T12:12:21;13.30;99.90
18823;DHT22;9540;51.550;7.980;2023-11-19T12:15:02;13.30;99.90
18823;DHT22;9540;51.550;7.980;2023-11-19T12:17:41;13.30;99.90
18823;DHT22;9540;51.550;7.980;2023-11-19T12:20:12;13.20;99.90
18823;DHT22;9540;51.550;7.980;2023-11-19T12:22:41;13.20;99.90
18823;DHT22;9540;51.550;7.980;2023-11-19T12:25:09;13.20;99.90
18823;DHT22;9540;51.550;7.980;2023-11-19T12:27:39;13.40;99.90
18823;DHT22;9540;51.550;7.980;2023-11-19T12:30:07;13.40;99.90
18823;DHT22;9540;51.550;7.980;2023-11-19T12:32:39;13.50;99.90
18823;DHT22;9540;51.550;7.980;2023-11-19T12:35:07;13.50;99.90
18823;DHT22;9540;51.550;7.980;2023-11-19T12:37:41;13.60;99.90
18823;DHT22;9540;51.550;7.980;2023-11-19T12:40:13;13.80;99.90
18823;DHT22;9540;51.550;7.980;2023-11-19T12:42:41;13.80;99.90
18823;DHT22;9540;51.550;7.980;2023-11-19T12:45:08;13.70;99.90
18823;DHT22;9540;51.550;7.980;2023-11-19T12:47:38;13.60;99.90
18823;DHT22;9540;51.550;7.980;2023-11-19T12:50:06;13.60;99.90
18823;DHT22;9540;51.550;7.980;2023-11-19T12:52:34;13.60;99.90
18823;DHT22;9540;51.550;7.980;2023-11-19T12:55:04;13.60;99.90
18823;DHT22;9540;51.550;7.980;2023-11-19T12:57:41;13.60;99.90
18823;DHT22;9540;51.550;7.980;2023-11-19T13:00:18;13.60;99.90
18823;DHT22;9540;51.550;7.980;2023-11-19T13:02:49;13.60;99.90
18823;DHT22;9540;51.550;7.980;2023-11-19T13:05:24;13.60;99.90
18823;DHT22;9540;51.550;7.980;2023-11-19T13:07:57;13.50;99.90
18823;DHT22;9540;51.550;7.980;2023-11-19T13:10:26;13.50;99.90
18823;DHT22;9540;51.550;7.980;2023-11-19T13:13:03;13.40;99.90
18823;DHT22;9540;51.550;7.980;2023-11-19T13:15:31;13.30;99.90
18823;DHT22;9540;51.550;7.980;2023-11-19T13:17:58;13.30;99.90
18823;DHT22;9540;51.550;7.980;2023-11-19T13:20:25;13.10;99.90
18823;DHT22;9540;51.550;7.980;2023-11-19T13:22:57;13.20;99.90
18823;DHT22;9540;51.550;7.980;2023-11-19T13:25:26;13.20;99.90
18823;DHT22;9540;51.550;7.980;2023-11-19T13:27:53;13.40;99.90
18823;DHT22;9540;51.550;7.980;2023-11-19T13:30:20;13.40;99.90
18823;DHT22;9540;51.550;7.980;2023-11-19T13:32:48;13.40;99.90
18823;DHT22;9540;51.550;7.980;2023-11-19T13:35:16;13.30;99.90
18823;DHT22;9540;51.550;7.980;2023-11-19T13:37:44;13.30;99.90
18823;DHT22;9540;51.550;7.980;2023-11-19T13:40:11;13.30;99.90
18823;DHT22;9540;51.550;7.980;2023-11-19T13:42:42;13.20;99.90
18823;DHT22;9540;51.550;7.980;2023-11-19T13:45:10;13.10;99.90
18823;DHT22;9540;51.550;7.980;2023-11-19T13:47:39;12.80;99.90
18823;DHT22;9540;51.550;7.980;2023-11-19T13:50:08;12.30;99.90
18823;DHT22;9540;51.550;7.980;2023-11-19T13:52:36;11.90;99.90
18823;DHT22;9540;51.550;7.980;2023-11-19T13:55:06;11.60;99.90
18823;DHT22;9540;51.550;7.980;2023-11-19T13:57:34;11.40;99.90
18823;DHT22;9540;51.550;7.980;2023-11-19T14:00:02;11.20;99.90
18823;DHT22;9540;51.550;7.980;2023-11-19T14:02:32;10.90;99.90
18823;DHT22;9540;51.550;7.980;2023-11-19T14:04:59;10.80;99.90
18823;DHT22;9540;51.550;7.980;2023-11-19T14:07:29;10.70;99.90
18823;DHT22;9540;51.550;7.980;2023-11-19T14:09:57;10.60;99.90
18823;DHT22;9540;51.550;7.980;2023-11-19T14:12:24;10.60;99.90
18823;DHT22;9540;51.550;7.980;2023-11-19T14:14:51;10.60;99.90
18823;DHT22;9540;51.550;7.980;2023-11-19T14:17:19;10.60;99.90
18823;DHT22;9540;51.550;7.980;2023-11-19T14:19:46;10.70;99.90
18823;DHT22;9540;51.550;7.980;2023-11-19T14:22:13;10.70;99.90
18823;DHT22;9540;51.550;7.980;2023-11-19T14:24:41;10.70;99.90
18823;DHT22;9540;51.550;7.980;2023-11-19T14:27:08;10.70;99.90
18823;DHT22;9540;51.550;7.980;2023-11-19T14:29:36;10.70;99.90
18823;DHT22;9540;51.550;7.980;2023-11-19T14:32:03;10.60;99.90
18823;DHT22;9540;51.550;7.980;2023-11-19T14:34:32;10.70;99.90
18823;DHT22;9540;51.550;7.980;2023-11-19T14:36:59;10.70;99.90
18823;DHT22;9540;51.550;7.980;2023-11-19T14:39:27;10.80;99.90
18823;DHT22;9540;51.550;7.980;2023-11-19T14:41:56;10.80;99.90
18823;DHT22;9540;51.550;7.980;2023-11-19T14:44:26;10.80;99.90
18823;DHT22;9540;51.550;7.980;2023-11-19T14:46:55;10.80;99.90
18823;DHT22;9540;51.550;7.980;2023-11-19T14:49:22;10.90;99.90
18823;DHT22;9540;51.550;7.980;2023-11-19T14:51:51;10.90;99.90
18823;DHT22;9540;51.550;7.980;2023-11-19T14:54:18;10.80;99.90
18823;DHT22;9540;51.550;7.980;2023-11-19T14:56:46;10.90;99.90
18823;DHT22;9540;51.550;7.980;2023-11-19T14:59:13;10.90;99.90
18823;DHT22;9540;51.550;7.980;2023-11-19T15:01:40;10.90;99.90
18823;DHT22;9540;51.550;7.980;2023-11-19T15:04:07;10.90;99.90
18823;DHT22;9540;51.550;7.980;2023-11-19T15:06:34;10.80;99.90
18823;DHT22;9540;51.550;7.980;2023-11-19T15:09:03;10.80;99.90
18823;DHT22;9540;51.550;7.980;2023-11-19T15:11:31;10.80;99.90
18823;DHT22;9540;51.550;7.980;2023-11-19T15:13:58;10.90;99.90
18823;DHT22;9540;51.550;7.980;2023-11-19T15:16:26;10.90;99.90
18823;DHT22;9540;51.550;7.980;2023-11-19T15:18:57;10.90;99.90
18823;DHT22;9540;51.550;7.980;2023-11-19T15:21:25;10.90;99.90
18823;DHT22;9540;51.550;7.980;2023-11-19T15:23:53;10.90;99.90
18823;DHT22;9540;51.550;7.980;2023-11-19T15:26:21;11.00;99.90
18823;DHT22;9540;51.550;7.980;2023-11-19T15:28:48;11.00;99.90
18823;DHT22;9540;51.550;7.980;2023-11-19T15:31:15;11.00;99.90
18823;DHT22;9540;51.550;7.980;2023-11-19T15:33:42;11.00;99.90
18823;DHT22;9540;51.550;7.980;2023-11-19T15:36:10;11.00;99.90
18823;DHT22;9540;51.550;7.980;2023-11-19T15:38:37;11.00;99.90
18823;DHT22;9540;51.550;7.980;2023-11-19T15:41:06;11.10;99.90
18823;DHT22;9540;51.550;7.980;2023-11-19T15:43:35;11.00;99.90
18823;DHT22;9540;51.550;7.980;2023-11-19T15:46:05;11.00;99.90
18823;DHT22;9540;51.550;7.980;2023-11-19T15:48:33;11.00;99.90
18823;DHT22;9540;51.550;7.980;2023-11-19T15:51:00;11.00;99.90
18823;DHT22;9540;51.550;7.980;2023-11-19T15:53:28;11.00;99.90